Item Display Status Inductive CT Sensor

Mooring Depth: 20 m

 

Deployed Sensor

  • Serial Number: 4189
  • NDBC Property Number: 24503
  • Start Date: 11/5/2018 (13:33:04 Z)
  • End Date: 7/15/2020 (12:00:00 Z)
Water Temperature [°C]     6 entries per hour
Showing data from 7/15/2020 (12:00:00 Z) to 7/14/2020 (00:00:01 Z)
Previous Next [ Day | 3-Days | 7-Days ]
First Last
Prev [ Day | 3-Days | 7-Days ] Next
First Last

Start Time:     :
End Time:     :     
Time (in GMT) :00 :50 :40 :30 :20 :10
Previous Next [ Day | 3-Days | 7-Days ]
First Last
Prev [ Day | 3-Days | 7-Days ] Next
First Last


123 => good data
MM => data is determined as missing
-- => data not received/configured
Back to Top Back to Top
7/15/2020 12:00 to 11:10 22.825 22.798 22.786 22.763 22.838 22.818
7/15/2020 11:00 to 10:10 22.927 22.846 22.656 22.641 22.742 22.612
7/15/2020 10:00 to 9:10 22.851 22.897 22.849 22.901 22.859 22.882
7/15/2020 09:00 to 8:10 22.823 22.879 22.841 22.840 22.873 22.867
7/15/2020 08:00 to 7:10 22.808 22.828 22.853 22.816 22.650 22.826
7/15/2020 07:00 to 6:10 22.850 22.919 22.853 22.441 22.844 22.674
7/15/2020 06:00 to 5:10 22.704 22.718 22.805 22.834 22.868 22.790
7/15/2020 05:00 to 4:10 22.729 22.741 22.683 22.700 22.690 22.584
7/15/2020 04:00 to 3:10 22.630 22.490 22.667 22.733 22.565 22.336
7/15/2020 03:00 to 2:10 -- -- -- -- -- --
7/15/2020 02:00 to 1:10 22.634 22.567 22.846 22.778 22.709 22.691
7/15/2020 01:00 to 0:10 22.740 22.795 22.764 22.771 22.665 22.732
7/15/2020 00:00 to 23:10 22.698 22.725 22.690 22.710 22.719 22.742
7/14/2020 23:00 to 22:10 22.670 22.642 22.730 22.698 22.742 22.738
7/14/2020 22:00 to 21:10 22.728 22.750 22.763 22.691 22.756 22.733
7/14/2020 21:00 to 20:10 22.749 22.697 22.661 22.632 22.612 22.663
7/14/2020 20:00 to 19:10 22.576 22.652 22.470 22.567 22.509 22.461
7/14/2020 19:00 to 18:10 22.459 22.435 22.417 22.414 22.485 22.456
7/14/2020 18:00 to 17:10 22.518 22.522 22.486 22.414 22.449 22.446
7/14/2020 17:00 to 16:10 22.535 22.545 22.533 22.523 22.526 22.532
7/14/2020 16:00 to 15:10 22.529 22.491 22.397 22.384 22.503 22.454
7/14/2020 15:00 to 14:10 22.153 22.470 22.399 22.411 22.486 22.495
7/14/2020 14:00 to 13:10 22.553 22.615 22.502 22.763 22.580 22.314
7/14/2020 13:00 to 12:10 22.536 22.596 22.568 22.549 22.516 22.591
7/14/2020 12:00 to 11:10 22.557 22.553 22.688 22.594 22.646 22.674
7/14/2020 11:00 to 10:10 22.656 22.600 22.718 22.415 22.481 22.590
7/14/2020 10:00 to 9:10 22.378 22.419 22.465 22.515 22.502 22.525
7/14/2020 09:00 to 8:10 22.524 22.497 22.448 22.398 22.617 22.423
7/14/2020 08:00 to 7:10 22.674 22.659 22.253 22.763 22.792 22.477
7/14/2020 07:00 to 6:10 22.665 22.566 22.601 22.595 22.590 22.567
7/14/2020 06:00 to 5:10 22.607 22.627 22.509 22.486 22.665 22.545
7/14/2020 05:00 to 4:10 22.575 22.517 22.531 22.571 22.534 22.546
7/14/2020 04:00 to 3:10 22.605 22.507 22.498 22.515 22.475 22.496
7/14/2020 03:00 to 2:10 22.578 22.547 22.518 22.446 22.261 22.233
7/14/2020 02:00 to 1:10 22.608 22.558 22.506 22.411 22.519 22.484
7/14/2020 01:00 to 0:10 22.437 22.658 22.447 22.463 22.185 22.395

 

 

 

Conductivity [S/m]     6 entries per hour
Showing data from 7/15/2020 (12:00:00 Z) to 7/14/2020 (00:00:01 Z)
Previous Next [ Day | 3-Days | 7-Days ]
First Last
Prev [ Day | 3-Days | 7-Days ] Next
First Last

Start Time:     :
End Time:     :     
Time (in GMT) :00 :50 :40 :30 :20 :10
Previous Next [ Day | 3-Days | 7-Days ]
First Last
Prev [ Day | 3-Days | 7-Days ] Next
First Last


123 => good data
MM => data is determined as missing
-- => data not received/configured
Back to Top Back to Top
7/15/2020 12:00 to 11:10 5.08478 5.08250 5.07992 5.07737 5.08436 5.08350
7/15/2020 11:00 to 10:10 5.09361 5.08670 5.06979 5.06712 5.07541 5.06428
7/15/2020 10:00 to 9:10 5.08618 5.08985 5.08563 5.09144 5.08697 5.08876
7/15/2020 09:00 to 8:10 5.08456 5.08670 5.08332 5.08359 5.08679 5.08595
7/15/2020 08:00 to 7:10 5.08099 5.08233 5.08538 5.08071 5.06593 5.08272
7/15/2020 07:00 to 6:10 5.08396 5.09109 5.08451 5.04670 5.08349 5.06791
7/15/2020 06:00 to 5:10 5.07090 5.07251 5.08012 5.08247 5.08573 5.07801
7/15/2020 05:00 to 4:10 5.07365 5.07402 5.06826 5.07004 5.06962 5.06055
7/15/2020 04:00 to 3:10 5.06403 5.05068 5.06714 5.06855 5.05826 5.04046
7/15/2020 03:00 to 2:10 -- -- -- -- -- --
7/15/2020 02:00 to 1:10 5.06287 5.05683 5.08342 5.07511 5.06949 5.06786
7/15/2020 01:00 to 0:10 5.07474 5.07749 5.07466 5.07484 5.06415 5.07147
7/15/2020 00:00 to 23:10 5.06739 5.07090 5.06779 5.06912 5.06991 5.07229
7/14/2020 23:00 to 22:10 5.06707 5.06250 5.07120 5.06855 5.07140 5.07214
7/14/2020 22:00 to 21:10 5.07105 5.07353 5.07370 5.06690 5.07516 5.07187
7/14/2020 21:00 to 20:10 5.07301 5.06816 5.06457 5.06252 5.06048 5.06475
7/14/2020 20:00 to 19:10 5.05678 5.06334 5.04662 5.05559 5.05033 5.04677
7/14/2020 19:00 to 18:10 5.04528 5.04356 5.04210 5.04220 5.04769 5.04573
7/14/2020 18:00 to 17:10 5.05135 5.05190 5.04844 5.04180 5.04496 5.04508
7/14/2020 17:00 to 16:10 5.05332 5.05288 5.05272 5.05217 5.05192 5.05195
7/14/2020 16:00 to 15:10 5.05245 5.04734 5.03989 5.03922 5.04933 5.04229
7/14/2020 15:00 to 14:10 5.01681 5.04607 5.03986 5.04125 5.04774 5.04864
7/14/2020 14:00 to 13:10 5.05424 5.06164 5.04946 5.07204 5.05690 5.03153
7/14/2020 13:00 to 12:10 5.05302 5.05768 5.05529 5.05319 5.04998 5.05855
7/14/2020 12:00 to 11:10 5.05357 5.05397 5.06524 5.05744 5.06235 5.06477
7/14/2020 11:00 to 10:10 5.06336 5.05823 5.07031 5.04182 5.04772 5.05718
7/14/2020 10:00 to 9:10 5.03835 5.04048 5.04560 5.04936 5.04889 5.05103
7/14/2020 09:00 to 8:10 5.05033 5.04834 5.04351 5.03924 5.05961 5.04083
7/14/2020 08:00 to 7:10 5.06583 5.06373 5.02526 5.07239 5.07563 5.04642
7/14/2020 07:00 to 6:10 5.06480 5.05500 5.05756 5.05690 5.05707 5.05426
7/14/2020 06:00 to 5:10 5.05811 5.05998 5.04993 5.04839 5.06326 5.05227
7/14/2020 05:00 to 4:10 5.05468 5.04953 5.05085 5.05441 5.05100 5.05185
7/14/2020 04:00 to 3:10 5.05748 5.04864 5.04764 5.04926 5.04510 5.04781
7/14/2020 03:00 to 2:10 5.05499 5.05127 5.04908 5.04215 5.02546 5.02945
7/14/2020 02:00 to 1:10 5.05621 5.05157 5.04871 5.03902 5.04851 5.04503
7/14/2020 01:00 to 0:10 5.03899 5.05945 5.04155 5.04222 5.01785 5.03683

 

 

 

Salinity [psu]     6 entries per hour
Showing data from 7/15/2020 (12:00:00 Z) to 7/14/2020 (00:00:01 Z)
Previous Next [ Day | 3-Days | 7-Days ]
First Last
Prev [ Day | 3-Days | 7-Days ] Next
First Last

Start Time:     :
End Time:     :     
Time (in GMT) :00 :50 :40 :30 :20 :10
Previous Next [ Day | 3-Days | 7-Days ]
First Last
Prev [ Day | 3-Days | 7-Days ] Next
First Last


123 => good data
MM => data is determined as missing
-- => data not received/configured
Back to Top Back to Top
7/15/2020 12:00 to 11:10 35.02 35.03 35.01 35.01 35.01 35.02
7/15/2020 11:00 to 10:10 35.01 35.02 35.04 35.03 35.01 35.03
7/15/2020 10:00 to 9:10 35.01 35.00 35.01 35.01 35.01 35.01
7/15/2020 09:00 to 8:10 35.02 34.99 35.00 35.00 35.00 35.00
7/15/2020 08:00 to 7:10 35.01 35.00 35.00 35.00 35.01 35.00
7/15/2020 07:00 to 6:10 34.99 34.99 35.00 35.03 35.00 35.01
7/15/2020 06:00 to 5:10 35.01 35.01 35.00 35.00 34.99 35.00
7/15/2020 05:00 to 4:10 35.01 35.00 35.01 35.01 35.01 35.03
7/15/2020 04:00 to 3:10 35.02 35.02 35.01 34.97 35.02 35.07
7/15/2020 03:00 to 2:10 -- -- -- -- -- --
7/15/2020 02:00 to 1:10 35.00 35.01 34.99 34.98 35.00 35.00
7/15/2020 01:00 to 0:10 35.01 34.99 34.99 34.99 34.99 34.99
7/15/2020 00:00 to 23:10 34.99 34.99 35.00 34.99 34.99 34.99
7/14/2020 23:00 to 22:10 35.01 34.99 34.99 35.00 34.98 34.99
7/14/2020 22:00 to 21:10 34.99 34.99 34.98 34.99 35.00 34.99
7/14/2020 21:00 to 20:10 34.99 34.99 35.00 35.00 35.00 35.00
7/14/2020 20:00 to 19:10 35.00 34.99 35.01 35.00 35.01 35.02
7/14/2020 19:00 to 18:10 35.01 35.01 35.02 35.02 35.01 35.01
7/14/2020 18:00 to 17:10 35.01 35.01 35.01 35.02 35.01 35.02
7/14/2020 17:00 to 16:10 35.01 35.00 35.01 35.01 35.01 35.00
7/14/2020 16:00 to 15:10 35.01 35.00 35.02 35.02 35.00 34.99
7/14/2020 15:00 to 14:10 35.03 35.00 35.01 35.01 35.01 35.00
7/14/2020 14:00 to 13:10 35.00 35.01 35.01 34.97 35.00 35.02
7/14/2020 13:00 to 12:10 35.01 34.99 35.00 35.00 35.00 35.00
7/14/2020 12:00 to 11:10 34.99 35.00 34.98 34.99 34.99 34.99
7/14/2020 11:00 to 10:10 34.99 35.00 34.99 35.02 35.01 34.99
7/14/2020 10:00 to 9:10 35.02 35.00 35.01 34.99 35.00 35.00
7/14/2020 09:00 to 8:10 35.00 35.00 35.00 35.01 34.99 35.00
7/14/2020 08:00 to 7:10 35.00 34.99 35.02 34.97 34.98 35.00
7/14/2020 07:00 to 6:10 34.99 35.00 34.99 34.99 34.99 34.99
7/14/2020 06:00 to 5:10 34.99 34.99 35.00 35.01 34.98 34.99
7/14/2020 05:00 to 4:10 34.99 34.99 34.99 34.99 34.99 34.99
7/14/2020 04:00 to 3:10 34.99 35.00 34.99 34.99 34.99 35.00
7/14/2020 03:00 to 2:10 34.99 34.98 34.99 34.99 35.01 35.07
7/14/2020 02:00 to 1:10 34.97 34.98 35.00 35.00 34.98 34.99
7/14/2020 01:00 to 0:10 34.98 34.96 34.99 34.98 35.01 34.99